sensor_id;sensor_type;location;lat;lon;timestamp;P1;durP1;ratioP1;P2;durP2;ratioP2
42770;SDS011;28426;42.872;25.314;2023-04-03T00:00:33;4.93;;;2.17;;
42770;SDS011;28426;42.872;25.314;2023-04-03T00:03:05;6.03;;;1.98;;
42770;SDS011;28426;42.872;25.314;2023-04-03T00:05:38;7.80;;;2.10;;
42770;SDS011;28426;42.872;25.314;2023-04-03T00:08:09;6.57;;;2.25;;
42770;SDS011;28426;42.872;25.314;2023-04-03T00:10:39;5.97;;;2.40;;
42770;SDS011;28426;42.872;25.314;2023-04-03T00:13:10;9.35;;;2.95;;
42770;SDS011;28426;42.872;25.314;2023-04-03T00:15:41;6.38;;;2.85;;
42770;SDS011;28426;42.872;25.314;2023-04-03T00:18:12;5.07;;;2.53;;
42770;SDS011;28426;42.872;25.314;2023-04-03T00:20:46;4.93;;;2.45;;
42770;SDS011;28426;42.872;25.314;2023-04-03T00:23:17;5.30;;;2.65;;
42770;SDS011;28426;42.872;25.314;2023-04-03T00:25:47;5.57;;;2.60;;
42770;SDS011;28426;42.872;25.314;2023-04-03T00:28:18;5.72;;;2.70;;
42770;SDS011;28426;42.872;25.314;2023-04-03T00:30:49;5.50;;;2.80;;
42770;SDS011;28426;42.872;25.314;2023-04-03T00:33:20;10.18;;;5.50;;
42770;SDS011;28426;42.872;25.314;2023-04-03T00:35:54;6.13;;;3.45;;
42770;SDS011;28426;42.872;25.314;2023-04-03T00:38:25;9.90;;;4.18;;
42770;SDS011;28426;42.872;25.314;2023-04-03T00:40:56;10.68;;;4.75;;
42770;SDS011;28426;42.872;25.314;2023-04-03T00:43:26;13.57;;;6.90;;
42770;SDS011;28426;42.872;25.314;2023-04-03T00:45:57;10.95;;;5.63;;
42770;SDS011;28426;42.872;25.314;2023-04-03T00:48:30;11.13;;;5.90;;
42770;SDS011;28426;42.872;25.314;2023-04-03T00:51:06;13.80;;;6.00;;
42770;SDS011;28426;42.872;25.314;2023-04-03T00:53:40;9.88;;;5.35;;
42770;SDS011;28426;42.872;25.314;2023-04-03T00:56:15;7.65;;;3.13;;
42770;SDS011;28426;42.872;25.314;2023-04-03T00:58:49;6.53;;;2.92;;
42770;SDS011;28426;42.872;25.314;2023-04-03T01:01:24;12.33;;;3.70;;
42770;SDS011;28426;42.872;25.314;2023-04-03T01:03:58;6.72;;;3.65;;
42770;SDS011;28426;42.872;25.314;2023-04-03T01:06:34;8.93;;;4.40;;
42770;SDS011;28426;42.872;25.314;2023-04-03T01:09:07;5.93;;;3.33;;
42770;SDS011;28426;42.872;25.314;2023-04-03T01:11:38;7.45;;;3.47;;
42770;SDS011;28426;42.872;25.314;2023-04-03T01:14:09;8.95;;;4.28;;
42770;SDS011;28426;42.872;25.314;2023-04-03T01:16:40;5.25;;;3.20;;
42770;SDS011;28426;42.872;25.314;2023-04-03T01:19:12;7.45;;;3.38;;
42770;SDS011;28426;42.872;25.314;2023-04-03T01:21:56;6.90;;;3.65;;
42770;SDS011;28426;42.872;25.314;2023-04-03T01:24:44;4.18;;;2.00;;
42770;SDS011;28426;42.872;25.314;2023-04-03T01:27:15;4.88;;;2.50;;
42770;SDS011;28426;42.872;25.314;2023-04-03T01:29:45;6.28;;;3.05;;
42770;SDS011;28426;42.872;25.314;2023-04-03T01:32:19;8.77;;;3.40;;
42770;SDS011;28426;42.872;25.314;2023-04-03T01:34:50;7.15;;;3.35;;
42770;SDS011;28426;42.872;25.314;2023-04-03T01:37:21;7.18;;;2.72;;
42770;SDS011;28426;42.872;25.314;2023-04-03T01:39:52;7.15;;;2.67;;
42770;SDS011;28426;42.872;25.314;2023-04-03T01:42:23;5.15;;;2.50;;
42770;SDS011;28426;42.872;25.314;2023-04-03T01:44:53;7.90;;;3.40;;
42770;SDS011;28426;42.872;25.314;2023-04-03T01:47:27;6.15;;;2.75;;
42770;SDS011;28426;42.872;25.314;2023-04-03T01:49:58;5.30;;;2.72;;
42770;SDS011;28426;42.872;25.314;2023-04-03T01:52:31;5.88;;;2.60;;
42770;SDS011;28426;42.872;25.314;2023-04-03T01:55:02;5.05;;;2.35;;
42770;SDS011;28426;42.872;25.314;2023-04-03T01:57:33;10.57;;;3.83;;
42770;SDS011;28426;42.872;25.314;2023-04-03T02:00:05;7.60;;;4.45;;
42770;SDS011;28426;42.872;25.314;2023-04-03T02:02:43;8.60;;;5.18;;
42770;SDS011;28426;42.872;25.314;2023-04-03T02:05:14;8.45;;;4.30;;
42770;SDS011;28426;42.872;25.314;2023-04-03T02:07:45;8.45;;;4.20;;
42770;SDS011;28426;42.872;25.314;2023-04-03T02:10:16;5.15;;;2.88;;
42770;SDS011;28426;42.872;25.314;2023-04-03T02:12:46;6.82;;;2.60;;
42770;SDS011;28426;42.872;25.314;2023-04-03T02:15:18;5.93;;;2.40;;
42770;SDS011;28426;42.872;25.314;2023-04-03T02:17:52;5.57;;;2.60;;
42770;SDS011;28426;42.872;25.314;2023-04-03T02:20:23;5.65;;;2.65;;
42770;SDS011;28426;42.872;25.314;2023-04-03T02:22:53;7.53;;;2.80;;
42770;SDS011;28426;42.872;25.314;2023-04-03T02:25:24;5.13;;;2.67;;
42770;SDS011;28426;42.872;25.314;2023-04-03T02:27:55;5.45;;;2.58;;
42770;SDS011;28426;42.872;25.314;2023-04-03T02:30:26;4.68;;;2.58;;
42770;SDS011;28426;42.872;25.314;2023-04-03T02:32:59;6.40;;;2.45;;
42770;SDS011;28426;42.872;25.314;2023-04-03T02:35:30;5.97;;;2.35;;
42770;SDS011;28426;42.872;25.314;2023-04-03T02:38:01;8.55;;;3.10;;
42770;SDS011;28426;42.872;25.314;2023-04-03T02:40:33;4.85;;;2.60;;
42770;SDS011;28426;42.872;25.314;2023-04-03T02:43:05;8.23;;;2.70;;
42770;SDS011;28426;42.872;25.314;2023-04-03T02:45:37;7.95;;;3.05;;
42770;SDS011;28426;42.872;25.314;2023-04-03T02:48:10;6.35;;;2.53;;
42770;SDS011;28426;42.872;25.314;2023-04-03T02:50:42;7.38;;;2.80;;
42770;SDS011;28426;42.872;25.314;2023-04-03T02:53:12;7.47;;;3.28;;
42770;SDS011;28426;42.872;25.314;2023-04-03T02:55:43;6.93;;;3.72;;
42770;SDS011;28426;42.872;25.314;2023-04-03T02:58:14;7.78;;;4.10;;
42770;SDS011;28426;42.872;25.314;2023-04-03T03:00:45;7.60;;;3.25;;
42770;SDS011;28426;42.872;25.314;2023-04-03T03:03:18;7.35;;;3.30;;
42770;SDS011;28426;42.872;25.314;2023-04-03T03:05:49;7.30;;;3.08;;
42770;SDS011;28426;42.872;25.314;2023-04-03T03:08:20;10.18;;;3.55;;
42770;SDS011;28426;42.872;25.314;2023-04-03T03:10:50;6.53;;;3.10;;
42770;SDS011;28426;42.872;25.314;2023-04-03T03:13:21;7.10;;;3.42;;
42770;SDS011;28426;42.872;25.314;2023-04-03T03:15:52;11.52;;;4.05;;
42770;SDS011;28426;42.872;25.314;2023-04-03T03:18:26;9.50;;;3.63;;
42770;SDS011;28426;42.872;25.314;2023-04-03T03:20:57;9.60;;;3.92;;
42770;SDS011;28426;42.872;25.314;2023-04-03T03:23:30;7.68;;;3.78;;
42770;SDS011;28426;42.872;25.314;2023-04-03T03:26:02;6.00;;;3.10;;
42770;SDS011;28426;42.872;25.314;2023-04-03T03:28:35;7.90;;;4.32;;
42770;SDS011;28426;42.872;25.314;2023-04-03T03:31:08;6.88;;;3.00;;
42770;SDS011;28426;42.872;25.314;2023-04-03T03:33:42;6.22;;;2.67;;
42770;SDS011;28426;42.872;25.314;2023-04-03T03:36:13;8.68;;;3.58;;
42770;SDS011;28426;42.872;25.314;2023-04-03T03:38:44;9.45;;;3.85;;
42770;SDS011;28426;42.872;25.314;2023-04-03T03:41:15;13.40;;;4.18;;
42770;SDS011;28426;42.872;25.314;2023-04-03T03:43:46;13.20;;;3.95;;
42770;SDS011;28426;42.872;25.314;2023-04-03T03:46:17;10.18;;;3.95;;
42770;SDS011;28426;42.872;25.314;2023-04-03T03:48:51;8.35;;;3.88;;
42770;SDS011;28426;42.872;25.314;2023-04-03T03:51:21;10.38;;;4.93;;
42770;SDS011;28426;42.872;25.314;2023-04-03T03:53:52;10.43;;;5.20;;
42770;SDS011;28426;42.872;25.314;2023-04-03T03:56:23;12.85;;;8.48;;
42770;SDS011;28426;42.872;25.314;2023-04-03T03:58:54;9.00;;;5.57;;
42770;SDS011;28426;42.872;25.314;2023-04-03T04:01:26;8.40;;;4.47;;
42770;SDS011;28426;42.872;25.314;2023-04-03T04:03:59;13.88;;;4.97;;
42770;SDS011;28426;42.872;25.314;2023-04-03T04:06:31;14.48;;;6.75;;
42770;SDS011;28426;42.872;25.314;2023-04-03T04:09:04;10.95;;;5.13;;
42770;SDS011;28426;42.872;25.314;2023-04-03T04:11:35;9.60;;;5.32;;
42770;SDS011;28426;42.872;25.314;2023-04-03T04:14:08;11.85;;;6.07;;
42770;SDS011;28426;42.872;25.314;2023-04-03T04:16:41;11.60;;;7.05;;
42770;SDS011;28426;42.872;25.314;2023-04-03T04:19:20;10.38;;;5.82;;
42770;SDS011;28426;42.872;25.314;2023-04-03T04:21:51;8.63;;;5.47;;
42770;SDS011;28426;42.872;25.314;2023-04-03T04:24:22;14.63;;;6.40;;
42770;SDS011;28426;42.872;25.314;2023-04-03T04:26:55;7.97;;;4.50;;
42770;SDS011;28426;42.872;25.314;2023-04-03T04:29:26;9.70;;;4.57;;
42770;SDS011;28426;42.872;25.314;2023-04-03T04:31:57;8.68;;;3.70;;
42770;SDS011;28426;42.872;25.314;2023-04-03T04:34:31;6.95;;;4.18;;
42770;SDS011;28426;42.872;25.314;2023-04-03T04:37:02;9.60;;;4.40;;
42770;SDS011;28426;42.872;25.314;2023-04-03T04:39:33;7.55;;;4.25;;
42770;SDS011;28426;42.872;25.314;2023-04-03T04:42:05;7.43;;;4.10;;
42770;SDS011;28426;42.872;25.314;2023-04-03T04:44:44;12.60;;;4.45;;
42770;SDS011;28426;42.872;25.314;2023-04-03T04:47:15;9.18;;;3.67;;
42770;SDS011;28426;42.872;25.314;2023-04-03T04:49:49;8.18;;;4.53;;
42770;SDS011;28426;42.872;25.314;2023-04-03T04:52:21;13.18;;;5.65;;
42770;SDS011;28426;42.872;25.314;2023-04-03T04:54:51;32.90;;;16.40;;
42770;SDS011;28426;42.872;25.314;2023-04-03T04:57:22;33.88;;;16.70;;
42770;SDS011;28426;42.872;25.314;2023-04-03T04:59:54;19.27;;;9.57;;
42770;SDS011;28426;42.872;25.314;2023-04-03T05:02:24;9.32;;;5.00;;
42770;SDS011;28426;42.872;25.314;2023-04-03T05:04:58;12.38;;;5.05;;
42770;SDS011;28426;42.872;25.314;2023-04-03T05:07:31;10.50;;;5.30;;
42770;SDS011;28426;42.872;25.314;2023-04-03T05:10:03;10.63;;;6.07;;
42770;SDS011;28426;42.872;25.314;2023-04-03T05:12:34;8.45;;;4.65;;
42770;SDS011;28426;42.872;25.314;2023-04-03T05:15:06;17.33;;;8.35;;
42770;SDS011;28426;42.872;25.314;2023-04-03T05:17:38;19.70;;;12.15;;
42770;SDS011;28426;42.872;25.314;2023-04-03T05:20:14;19.45;;;12.00;;
42770;SDS011;28426;42.872;25.314;2023-04-03T05:22:46;7.75;;;4.22;;
42770;SDS011;28426;42.872;25.314;2023-04-03T05:25:17;14.38;;;5.15;;
42770;SDS011;28426;42.872;25.314;2023-04-03T05:27:48;9.75;;;5.20;;
42770;SDS011;28426;42.872;25.314;2023-04-03T05:30:19;11.57;;;5.15;;
42770;SDS011;28426;42.872;25.314;2023-04-03T05:32:49;10.05;;;4.60;;
42770;SDS011;28426;42.872;25.314;2023-04-03T05:35:33;8.57;;;4.28;;
42770;SDS011;28426;42.872;25.314;2023-04-03T05:38:10;8.77;;;4.90;;
42770;SDS011;28426;42.872;25.314;2023-04-03T05:40:42;9.70;;;4.50;;
42770;SDS011;28426;42.872;25.314;2023-04-03T05:43:13;7.95;;;4.60;;
42770;SDS011;28426;42.872;25.314;2023-04-03T05:45:45;9.93;;;5.63;;
42770;SDS011;28426;42.872;25.314;2023-04-03T05:48:19;11.55;;;5.45;;
42770;SDS011;28426;42.872;25.314;2023-04-03T05:50:53;11.27;;;4.32;;
42770;SDS011;28426;42.872;25.314;2023-04-03T05:53:27;8.32;;;3.95;;
42770;SDS011;28426;42.872;25.314;2023-04-03T05:56:02;8.25;;;3.65;;
42770;SDS011;28426;42.872;25.314;2023-04-03T05:58:38;7.43;;;3.65;;
42770;SDS011;28426;42.872;25.314;2023-04-03T06:01:09;11.63;;;5.18;;
42770;SDS011;28426;42.872;25.314;2023-04-03T06:03:40;9.10;;;5.30;;
42770;SDS011;28426;42.872;25.314;2023-04-03T06:06:14;9.55;;;5.38;;
42770;SDS011;28426;42.872;25.314;2023-04-03T06:08:45;7.22;;;4.40;;
42770;SDS011;28426;42.872;25.314;2023-04-03T06:11:16;13.82;;;4.80;;
42770;SDS011;28426;42.872;25.314;2023-04-03T06:13:48;10.73;;;5.60;;
42770;SDS011;28426;42.872;25.314;2023-04-03T06:16:19;9.00;;;5.28;;
42770;SDS011;28426;42.872;25.314;2023-04-03T06:18:49;8.20;;;5.20;;
42770;SDS011;28426;42.872;25.314;2023-04-03T06:21:23;20.25;;;7.65;;
42770;SDS011;28426;42.872;25.314;2023-04-03T06:23:53;15.38;;;7.13;;
42770;SDS011;28426;42.872;25.314;2023-04-03T06:26:24;15.85;;;8.60;;
42770;SDS011;28426;42.872;25.314;2023-04-03T06:28:55;13.20;;;7.20;;
42770;SDS011;28426;42.872;25.314;2023-04-03T06:31:26;11.77;;;7.30;;
42770;SDS011;28426;42.872;25.314;2023-04-03T06:33:56;11.13;;;6.25;;
42770;SDS011;28426;42.872;25.314;2023-04-03T06:36:30;12.02;;;5.53;;
42770;SDS011;28426;42.872;25.314;2023-04-03T06:39:01;10.85;;;4.32;;
42770;SDS011;28426;42.872;25.314;2023-04-03T06:41:32;10.63;;;4.88;;
42770;SDS011;28426;42.872;25.314;2023-04-03T06:44:03;8.75;;;4.60;;
42770;SDS011;28426;42.872;25.314;2023-04-03T06:46:38;10.27;;;4.72;;
42770;SDS011;28426;42.872;25.314;2023-04-03T06:49:09;13.32;;;4.55;;
42770;SDS011;28426;42.872;25.314;2023-04-03T06:51:42;17.75;;;4.68;;
42770;SDS011;28426;42.872;25.314;2023-04-03T06:54:13;9.82;;;4.10;;
42770;SDS011;28426;42.872;25.314;2023-04-03T06:56:44;12.48;;;3.92;;
42770;SDS011;28426;42.872;25.314;2023-04-03T06:59:14;12.05;;;4.00;;
42770;SDS011;28426;42.872;25.314;2023-04-03T07:01:45;8.73;;;3.55;;
42770;SDS011;28426;42.872;25.314;2023-04-03T07:04:16;9.57;;;3.15;;
42770;SDS011;28426;42.872;25.314;2023-04-03T07:06:50;12.25;;;3.33;;
42770;SDS011;28426;42.872;25.314;2023-04-03T07:09:20;5.80;;;2.72;;
42770;SDS011;28426;42.872;25.314;2023-04-03T07:11:51;10.75;;;2.50;;
42770;SDS011;28426;42.872;25.314;2023-04-03T07:14:22;6.72;;;2.38;;
42770;SDS011;28426;42.872;25.314;2023-04-03T07:16:53;4.78;;;2.50;;
42770;SDS011;28426;42.872;25.314;2023-04-03T07:19:23;9.00;;;2.30;;
42770;SDS011;28426;42.872;25.314;2023-04-03T07:21:57;6.95;;;1.75;;
42770;SDS011;28426;42.872;25.314;2023-04-03T07:24:28;7.93;;;2.85;;
42770;SDS011;28426;42.872;25.314;2023-04-03T07:26:58;3.53;;;1.40;;
42770;SDS011;28426;42.872;25.314;2023-04-03T07:29:30;6.30;;;2.20;;
42770;SDS011;28426;42.872;25.314;2023-04-03T07:32:02;4.80;;;1.10;;
42770;SDS011;28426;42.872;25.314;2023-04-03T07:34:33;4.90;;;1.08;;
42770;SDS011;28426;42.872;25.314;2023-04-03T07:37:07;4.90;;;1.40;;
42770;SDS011;28426;42.872;25.314;2023-04-03T07:39:38;4.35;;;1.10;;
42770;SDS011;28426;42.872;25.314;2023-04-03T07:42:09;2.28;;;1.00;;
42770;SDS011;28426;42.872;25.314;2023-04-03T07:44:40;2.53;;;0.90;;
42770;SDS011;28426;42.872;25.314;2023-04-03T07:47:10;2.22;;;0.90;;
42770;SDS011;28426;42.872;25.314;2023-04-03T07:49:42;3.83;;;1.08;;
42770;SDS011;28426;42.872;25.314;2023-04-03T07:52:15;2.95;;;1.23;;
42770;SDS011;28426;42.872;25.314;2023-04-03T07:54:46;5.32;;;1.40;;
42770;SDS011;28426;42.872;25.314;2023-04-03T07:57:16;3.67;;;1.02;;
42770;SDS011;28426;42.872;25.314;2023-04-03T07:59:47;4.32;;;1.05;;
42770;SDS011;28426;42.872;25.314;2023-04-03T08:02:18;2.55;;;0.90;;
42770;SDS011;28426;42.872;25.314;2023-04-03T08:04:48;2.72;;;1.08;;
42770;SDS011;28426;42.872;25.314;2023-04-03T08:07:22;3.53;;;0.93;;
42770;SDS011;28426;42.872;25.314;2023-04-03T08:09:52;2.90;;;0.90;;
42770;SDS011;28426;42.872;25.314;2023-04-03T08:12:24;2.38;;;0.90;;
42770;SDS011;28426;42.872;25.314;2023-04-03T08:14:55;1.85;;;0.90;;
42770;SDS011;28426;42.872;25.314;2023-04-03T08:17:26;3.63;;;0.85;;
42770;SDS011;28426;42.872;25.314;2023-04-03T08:19:57;1.70;;;0.60;;
42770;SDS011;28426;42.872;25.314;2023-04-03T08:22:31;2.03;;;0.90;;
42770;SDS011;28426;42.872;25.314;2023-04-03T08:25:05;1.50;;;0.70;;
42770;SDS011;28426;42.872;25.314;2023-04-03T08:27:37;2.55;;;0.70;;
42770;SDS011;28426;42.872;25.314;2023-04-03T08:30:08;2.08;;;0.90;;
42770;SDS011;28426;42.872;25.314;2023-04-03T08:32:40;3.45;;;1.20;;
42770;SDS011;28426;42.872;25.314;2023-04-03T08:35:12;4.70;;;1.30;;
42770;SDS011;28426;42.872;25.314;2023-04-03T08:37:45;4.50;;;1.30;;
42770;SDS011;28426;42.872;25.314;2023-04-03T08:40:16;3.30;;;1.10;;
42770;SDS011;28426;42.872;25.314;2023-04-03T08:42:50;2.22;;;0.82;;
42770;SDS011;28426;42.872;25.314;2023-04-03T08:45:33;3.30;;;0.80;;
42770;SDS011;28426;42.872;25.314;2023-04-03T08:48:14;2.50;;;0.80;;
42770;SDS011;28426;42.872;25.314;2023-04-03T08:50:47;2.08;;;0.95;;
42770;SDS011;28426;42.872;25.314;2023-04-03T08:53:25;4.75;;;1.52;;
42770;SDS011;28426;42.872;25.314;2023-04-03T08:55:59;1.27;;;0.70;;
42770;SDS011;28426;42.872;25.314;2023-04-03T08:58:33;8.35;;;1.60;;
42770;SDS011;28426;42.872;25.314;2023-04-03T09:01:15;3.92;;;1.05;;
42770;SDS011;28426;42.872;25.314;2023-04-03T09:03:49;7.50;;;1.40;;
42770;SDS011;28426;42.872;25.314;2023-04-03T09:06:21;3.85;;;0.98;;
42770;SDS011;28426;42.872;25.314;2023-04-03T09:09:01;2.55;;;0.80;;
42770;SDS011;28426;42.872;25.314;2023-04-03T09:11:45;2.47;;;1.20;;
42770;SDS011;28426;42.872;25.314;2023-04-03T09:14:23;2.55;;;1.13;;
42770;SDS011;28426;42.872;25.314;2023-04-03T09:17:02;2.88;;;1.45;;
42770;SDS011;28426;42.872;25.314;2023-04-03T09:19:41;8.43;;;1.45;;
42770;SDS011;28426;42.872;25.314;2023-04-03T09:22:18;7.28;;;1.40;;
42770;SDS011;28426;42.872;25.314;2023-04-03T09:24:55;7.88;;;1.70;;
42770;SDS011;28426;42.872;25.314;2023-04-03T09:27:29;9.07;;;2.13;;
42770;SDS011;28426;42.872;25.314;2023-04-03T09:30:00;4.50;;;1.15;;
42770;SDS011;28426;42.872;25.314;2023-04-03T09:32:32;2.20;;;0.90;;
42770;SDS011;28426;42.872;25.314;2023-04-03T09:35:06;4.20;;;1.45;;
42770;SDS011;28426;42.872;25.314;2023-04-03T09:37:58;5.25;;;1.30;;
42770;SDS011;28426;42.872;25.314;2023-04-03T09:40:37;4.78;;;1.70;;
42770;SDS011;28426;42.872;25.314;2023-04-03T09:43:23;4.63;;;1.30;;
42770;SDS011;28426;42.872;25.314;2023-04-03T09:45:55;4.93;;;1.40;;
42770;SDS011;28426;42.872;25.314;2023-04-03T09:48:51;4.53;;;1.48;;
42770;SDS011;28426;42.872;25.314;2023-04-03T09:51:35;3.28;;;1.58;;
42770;SDS011;28426;42.872;25.314;2023-04-03T09:57:09;5.38;;;1.70;;
42770;SDS011;28426;42.872;25.314;2023-04-03T09:59:45;4.53;;;1.67;;
42770;SDS011;28426;42.872;25.314;2023-04-03T10:02:34;2.60;;;1.20;;
42770;SDS011;28426;42.872;25.314;2023-04-03T10:08:19;3.07;;;1.10;;
42770;SDS011;28426;42.872;25.314;2023-04-03T10:11:09;5.95;;;1.35;;
42770;SDS011;28426;42.872;25.314;2023-04-03T10:13:52;2.58;;;1.02;;
42770;SDS011;28426;42.872;25.314;2023-04-03T10:16:25;4.32;;;1.27;;
42770;SDS011;28426;42.872;25.314;2023-04-03T10:19:03;3.40;;;1.00;;
42770;SDS011;28426;42.872;25.314;2023-04-03T10:21:52;5.45;;;1.65;;
42770;SDS011;28426;42.872;25.314;2023-04-03T10:24:28;3.38;;;0.98;;
42770;SDS011;28426;42.872;25.314;2023-04-03T10:27:07;2.70;;;0.85;;
42770;SDS011;28426;42.872;25.314;2023-04-03T10:29:46;3.00;;;1.10;;
42770;SDS011;28426;42.872;25.314;2023-04-03T10:32:43;2.42;;;1.00;;
42770;SDS011;28426;42.872;25.314;2023-04-03T10:35:26;2.08;;;0.90;;
42770;SDS011;28426;42.872;25.314;2023-04-03T10:38:09;4.60;;;0.98;;
42770;SDS011;28426;42.872;25.314;2023-04-03T10:40:47;5.18;;;0.98;;
42770;SDS011;28426;42.872;25.314;2023-04-03T10:43:27;1.70;;;0.70;;
42770;SDS011;28426;42.872;25.314;2023-04-03T10:46:06;1.48;;;0.70;;
42770;SDS011;28426;42.872;25.314;2023-04-03T10:48:46;3.38;;;0.90;;
42770;SDS011;28426;42.872;25.314;2023-04-03T10:51:27;4.07;;;0.90;;
42770;SDS011;28426;42.872;25.314;2023-04-03T10:54:03;5.18;;;1.10;;
42770;SDS011;28426;42.872;25.314;2023-04-03T10:56:39;6.05;;;1.13;;
42770;SDS011;28426;42.872;25.314;2023-04-03T10:59:13;1.83;;;0.80;;
42770;SDS011;28426;42.872;25.314;2023-04-03T11:01:52;2.83;;;0.70;;
42770;SDS011;28426;42.872;25.314;2023-04-03T11:04:26;2.35;;;0.90;;
42770;SDS011;28426;42.872;25.314;2023-04-03T11:07:02;2.00;;;0.90;;
42770;SDS011;28426;42.872;25.314;2023-04-03T11:09:41;1.27;;;0.80;;
42770;SDS011;28426;42.872;25.314;2023-04-03T11:12:15;2.43;;;1.10;;
42770;SDS011;28426;42.872;25.314;2023-04-03T11:14:51;2.95;;;1.15;;
42770;SDS011;28426;42.872;25.314;2023-04-03T11:17:28;2.85;;;1.25;;
42770;SDS011;28426;42.872;25.314;2023-04-03T11:20:06;3.10;;;1.42;;
42770;SDS011;28426;42.872;25.314;2023-04-03T11:22:45;2.33;;;1.20;;
42770;SDS011;28426;42.872;25.314;2023-04-03T11:25:21;2.50;;;1.00;;
42770;SDS011;28426;42.872;25.314;2023-04-03T11:27:54;2.58;;;1.25;;
42770;SDS011;28426;42.872;25.314;2023-04-03T11:30:28;2.90;;;1.30;;
42770;SDS011;28426;42.872;25.314;2023-04-03T11:33:15;8.38;;;1.98;;
42770;SDS011;28426;42.872;25.314;2023-04-03T11:36:03;4.63;;;1.70;;
42770;SDS011;28426;42.872;25.314;2023-04-03T11:38:54;3.35;;;1.30;;
42770;SDS011;28426;42.872;25.314;2023-04-03T11:41:28;9.20;;;1.52;;
42770;SDS011;28426;42.872;25.314;2023-04-03T11:44:01;6.13;;;1.45;;
42770;SDS011;28426;42.872;25.314;2023-04-03T11:52:59;3.67;;;1.25;;
42770;SDS011;28426;42.872;25.314;2023-04-03T11:55:42;2.85;;;0.90;;
42770;SDS011;28426;42.872;25.314;2023-04-03T11:58:26;2.63;;;1.30;;
42770;SDS011;28426;42.872;25.314;2023-04-03T12:00:59;1.85;;;0.80;;
42770;SDS011;28426;42.872;25.314;2023-04-03T12:12:57;3.67;;;1.40;;
42770;SDS011;28426;42.872;25.314;2023-04-03T12:24:28;3.47;;;1.45;;
42770;SDS011;28426;42.872;25.314;2023-04-03T12:30:15;3.35;;;1.40;;
42770;SDS011;28426;42.872;25.314;2023-04-03T12:32:55;3.63;;;1.52;;
42770;SDS011;28426;42.872;25.314;2023-04-03T12:35:43;2.53;;;1.30;;
42770;SDS011;28426;42.872;25.314;2023-04-03T12:38:35;3.13;;;1.33;;
42770;SDS011;28426;42.872;25.314;2023-04-03T12:41:21;2.95;;;1.50;;
42770;SDS011;28426;42.872;25.314;2023-04-03T12:44:04;2.45;;;1.30;;
42770;SDS011;28426;42.872;25.314;2023-04-03T12:46:52;5.85;;;1.52;;
42770;SDS011;28426;42.872;25.314;2023-04-03T12:49:37;5.10;;;1.50;;
42770;SDS011;28426;42.872;25.314;2023-04-03T12:54:48;4.85;;;1.30;;
42770;SDS011;28426;42.872;25.314;2023-04-03T12:57:24;3.40;;;1.30;;
42770;SDS011;28426;42.872;25.314;2023-04-03T12:59:56;3.42;;;1.75;;
42770;SDS011;28426;42.872;25.314;2023-04-03T13:02:27;2.60;;;1.30;;
42770;SDS011;28426;42.872;25.314;2023-04-03T13:05:07;3.78;;;1.60;;
42770;SDS011;28426;42.872;25.314;2023-04-03T13:07:45;3.13;;;1.70;;
42770;SDS011;28426;42.872;25.314;2023-04-03T13:10:29;3.92;;;1.55;;
42770;SDS011;28426;42.872;25.314;2023-04-03T13:13:09;5.45;;;2.25;;
42770;SDS011;28426;42.872;25.314;2023-04-03T13:15:52;6.20;;;2.15;;
42770;SDS011;28426;42.872;25.314;2023-04-03T13:18:30;5.75;;;2.05;;
42770;SDS011;28426;42.872;25.314;2023-04-03T13:21:04;6.25;;;2.40;;
42770;SDS011;28426;42.872;25.314;2023-04-03T13:23:38;5.68;;;2.30;;
42770;SDS011;28426;42.872;25.314;2023-04-03T13:26:12;4.25;;;2.20;;
42770;SDS011;28426;42.872;25.314;2023-04-03T13:28:49;4.35;;;2.25;;
42770;SDS011;28426;42.872;25.314;2023-04-03T13:31:22;5.43;;;2.42;;
42770;SDS011;28426;42.872;25.314;2023-04-03T13:36:30;5.05;;;2.90;;
42770;SDS011;28426;42.872;25.314;2023-04-03T13:39:18;5.28;;;2.55;;
42770;SDS011;28426;42.872;25.314;2023-04-03T13:41:54;8.77;;;3.83;;
42770;SDS011;28426;42.872;25.314;2023-04-03T13:44:32;6.57;;;3.45;;
42770;SDS011;28426;42.872;25.314;2023-04-03T13:47:17;9.43;;;3.70;;
42770;SDS011;28426;42.872;25.314;2023-04-03T13:49:59;7.82;;;3.30;;
42770;SDS011;28426;42.872;25.314;2023-04-03T13:52:32;4.30;;;2.65;;
42770;SDS011;28426;42.872;25.314;2023-04-03T13:55:15;4.50;;;2.40;;
42770;SDS011;28426;42.872;25.314;2023-04-03T13:57:53;6.28;;;2.83;;
42770;SDS011;28426;42.872;25.314;2023-04-03T14:00:34;5.28;;;2.53;;
42770;SDS011;28426;42.872;25.314;2023-04-03T14:03:12;4.18;;;2.33;;
42770;SDS011;28426;42.872;25.314;2023-04-03T14:05:44;8.75;;;3.03;;
42770;SDS011;28426;42.872;25.314;2023-04-03T14:08:15;5.75;;;2.33;;
42770;SDS011;28426;42.872;25.314;2023-04-03T14:10:58;4.68;;;2.10;;
42770;SDS011;28426;42.872;25.314;2023-04-03T14:13:30;7.63;;;3.35;;
42770;SDS011;28426;42.872;25.314;2023-04-03T14:16:04;4.78;;;2.40;;
42770;SDS011;28426;42.872;25.314;2023-04-03T14:18:42;6.80;;;3.20;;
42770;SDS011;28426;42.872;25.314;2023-04-03T14:21:15;6.07;;;2.92;;
42770;SDS011;28426;42.872;25.314;2023-04-03T14:23:48;8.88;;;3.45;;
42770;SDS011;28426;42.872;25.314;2023-04-03T14:26:20;7.65;;;3.22;;
42770;SDS011;28426;42.872;25.314;2023-04-03T14:28:54;7.57;;;3.50;;
42770;SDS011;28426;42.872;25.314;2023-04-03T14:31:27;6.03;;;3.67;;
42770;SDS011;28426;42.872;25.314;2023-04-03T14:33:58;10.65;;;6.97;;
42770;SDS011;28426;42.872;25.314;2023-04-03T14:36:32;13.95;;;9.05;;
42770;SDS011;28426;42.872;25.314;2023-04-03T14:39:04;9.57;;;5.15;;
42770;SDS011;28426;42.872;25.314;2023-04-03T14:41:35;16.70;;;9.93;;
42770;SDS011;28426;42.872;25.314;2023-04-03T14:44:06;10.90;;;6.07;;
42770;SDS011;28426;42.872;25.314;2023-04-03T14:46:41;9.38;;;5.78;;
42770;SDS011;28426;42.872;25.314;2023-04-03T14:49:24;12.82;;;6.70;;
42770;SDS011;28426;42.872;25.314;2023-04-03T14:51:56;9.57;;;6.45;;
42770;SDS011;28426;42.872;25.314;2023-04-03T14:54:27;17.13;;;7.68;;
42770;SDS011;28426;42.872;25.314;2023-04-03T14:56:59;16.23;;;9.82;;
42770;SDS011;28426;42.872;25.314;2023-04-03T14:59:30;13.88;;;7.60;;
42770;SDS011;28426;42.872;25.314;2023-04-03T15:02:05;9.77;;;6.70;;
42770;SDS011;28426;42.872;25.314;2023-04-03T15:04:55;10.30;;;6.35;;
42770;SDS011;28426;42.872;25.314;2023-04-03T15:07:28;9.20;;;6.22;;
42770;SDS011;28426;42.872;25.314;2023-04-03T15:10:02;11.82;;;6.32;;
42770;SDS011;28426;42.872;25.314;2023-04-03T15:12:37;10.43;;;5.85;;
42770;SDS011;28426;42.872;25.314;2023-04-03T15:15:08;16.60;;;8.05;;
42770;SDS011;28426;42.872;25.314;2023-04-03T15:17:43;9.32;;;6.15;;
42770;SDS011;28426;42.872;25.314;2023-04-03T15:20:16;9.85;;;5.00;;
42770;SDS011;28426;42.872;25.314;2023-04-03T15:22:49;11.32;;;5.95;;
42770;SDS011;28426;42.872;25.314;2023-04-03T15:25:21;11.07;;;6.38;;
42770;SDS011;28426;42.872;25.314;2023-04-03T15:27:52;9.93;;;6.82;;
42770;SDS011;28426;42.872;25.314;2023-04-03T15:30:26;11.68;;;7.32;;
42770;SDS011;28426;42.872;25.314;2023-04-03T15:33:00;13.27;;;8.45;;
42770;SDS011;28426;42.872;25.314;2023-04-03T15:35:30;10.63;;;6.90;;
42770;SDS011;28426;42.872;25.314;2023-04-03T15:38:04;13.40;;;7.22;;
42770;SDS011;28426;42.872;25.314;2023-04-03T15:40:34;11.98;;;8.27;;
42770;SDS011;28426;42.872;25.314;2023-04-03T15:43:05;11.80;;;7.07;;
42770;SDS011;28426;42.872;25.314;2023-04-03T15:45:36;16.50;;;9.57;;
42770;SDS011;28426;42.872;25.314;2023-04-03T15:48:10;9.75;;;5.80;;
42770;SDS011;28426;42.872;25.314;2023-04-03T15:50:42;12.70;;;6.63;;